<?xml version="1.0" encoding="UTF-8"?>
<gpx version="1.0" creator="Gaggle https://github.com/geeksville/Gaggle" xmlns:xsi="http://www.w3.org/2001/XMLSchema-instance" xmlns="http://www.topografix.com/GPX/1/0" xsi:schemaLocation="http://www.topografix.com/GPX/1/0 http://www.topografix.com/GPX/1/0/gpx.xsd">
<trk>
	<name>Jorgev's flight</name>
	<desc>
	Pilot name:	Jorgev
	Pilot ID:	
	Glider type:	Rush 2
	</desc>
	<trkseg>
		<trkpt lat="42.873445" lon="-5.374534">
			<ele>1631.000000</ele>
		<time>2015-11-09T11:38:50Z</time>
		</trkpt>

		<trkpt lat="42.873341" lon="-5.374849">
			<ele>1604.000000</ele>
		<time>2015-11-09T11:39:11Z</time>
		</trkpt>

		<trkpt lat="42.873368" lon="-5.374842">
			<ele>1607.000000</ele>
		<time>2015-11-09T11:39:31Z</time>
		</trkpt>

		<trkpt lat="42.873378" lon="-5.374881">
			<ele>1611.000000</ele>
		<time>2015-11-09T11:39:45Z</time>
		</trkpt>

		<trkpt lat="42.873381" lon="-5.374842">
			<ele>1611.000000</ele>
		<time>2015-11-09T11:40:04Z</time>
		</trkpt>

		<trkpt lat="42.873349" lon="-5.374822">
			<ele>1607.000000</ele>
		<time>2015-11-09T11:43:36Z</time>
		</trkpt>

		<trkpt lat="42.873281" lon="-5.374814">
			<ele>1605.000000</ele>
		<time>2015-11-09T11:43:40Z</time>
		</trkpt>

		<trkpt lat="42.873244" lon="-5.372594">
			<ele>1588.000000</ele>
		<time>2015-11-09T11:44:12Z</time>
		</trkpt>

		<trkpt lat="42.873100" lon="-5.372447">
			<ele>1594.000000</ele>
		<time>2015-11-09T11:44:15Z</time>
		</trkpt>

		<trkpt lat="42.872947" lon="-5.372474">
			<ele>1586.000000</ele>
		<time>2015-11-09T11:44:18Z</time>
		</trkpt>

		<trkpt lat="42.872776" lon="-5.372714">
			<ele>1589.000000</ele>
		<time>2015-11-09T11:44:21Z</time>
		</trkpt>

		<trkpt lat="42.872673" lon="-5.372963">
			<ele>1589.000000</ele>
		<time>2015-11-09T11:44:24Z</time>
		</trkpt>

		<trkpt lat="42.872565" lon="-5.373243">
			<ele>1588.000000</ele>
		<time>2015-11-09T11:44:27Z</time>
		</trkpt>

		<trkpt lat="42.872473" lon="-5.373593">
			<ele>1587.000000</ele>
		<time>2015-11-09T11:44:30Z</time>
		</trkpt>

		<trkpt lat="42.872345" lon="-5.373913">
			<ele>1591.000000</ele>
		<time>2015-11-09T11:44:33Z</time>
		</trkpt>

		<trkpt lat="42.872204" lon="-5.374161">
			<ele>1595.000000</ele>
		<time>2015-11-09T11:44:36Z</time>
		</trkpt>

		<trkpt lat="42.872076" lon="-5.374313">
			<ele>1593.000000</ele>
		<time>2015-11-09T11:44:39Z</time>
		</trkpt>

		<trkpt lat="42.871889" lon="-5.374349">
			<ele>1593.000000</ele>
		<time>2015-11-09T11:44:42Z</time>
		</trkpt>

		<trkpt lat="42.871782" lon="-5.374106">
			<ele>1598.000000</ele>
		<time>2015-11-09T11:44:45Z</time>
		</trkpt>

		<trkpt lat="42.871804" lon="-5.373782">
			<ele>1598.000000</ele>
		<time>2015-11-09T11:44:48Z</time>
		</trkpt>

		<trkpt lat="42.871955" lon="-5.373473">
			<ele>1595.000000</ele>
		<time>2015-11-09T11:44:51Z</time>
		</trkpt>

		<trkpt lat="42.872251" lon="-5.373508">
			<ele>1595.000000</ele>
		<time>2015-11-09T11:44:54Z</time>
		</trkpt>

		<trkpt lat="42.872361" lon="-5.373708">
			<ele>1592.000000</ele>
		<time>2015-11-09T11:44:57Z</time>
		</trkpt>

		<trkpt lat="42.872238" lon="-5.373885">
			<ele>1593.000000</ele>
		<time>2015-11-09T11:45:00Z</time>
		</trkpt>

		<trkpt lat="42.872038" lon="-5.373798">
			<ele>1590.000000</ele>
		<time>2015-11-09T11:45:03Z</time>
		</trkpt>

		<trkpt lat="42.871851" lon="-5.373719">
			<ele>1590.000000</ele>
		<time>2015-11-09T11:45:06Z</time>
		</trkpt>

		<trkpt lat="42.871749" lon="-5.373540">
			<ele>1591.000000</ele>
		<time>2015-11-09T11:45:09Z</time>
		</trkpt>

		<trkpt lat="42.871617" lon="-5.373368">
			<ele>1590.000000</ele>
		<time>2015-11-09T11:45:12Z</time>
		</trkpt>

		<trkpt lat="42.871510" lon="-5.373127">
			<ele>1587.000000</ele>
		<time>2015-11-09T11:45:15Z</time>
		</trkpt>

		<trkpt lat="42.871371" lon="-5.372938">
			<ele>1585.000000</ele>
		<time>2015-11-09T11:45:18Z</time>
		</trkpt>

		<trkpt lat="42.871258" lon="-5.372713">
			<ele>1581.000000</ele>
		<time>2015-11-09T11:45:21Z</time>
		</trkpt>

		<trkpt lat="42.871107" lon="-5.372496">
			<ele>1575.000000</ele>
		<time>2015-11-09T11:45:24Z</time>
		</trkpt>

		<trkpt lat="42.870900" lon="-5.372475">
			<ele>1570.000000</ele>
		<time>2015-11-09T11:45:27Z</time>
		</trkpt>

		<trkpt lat="42.870740" lon="-5.372605">
			<ele>1563.000000</ele>
		<time>2015-11-09T11:45:30Z</time>
		</trkpt>

		<trkpt lat="42.870670" lon="-5.372880">
			<ele>1559.000000</ele>
		<time>2015-11-09T11:45:33Z</time>
		</trkpt>

		<trkpt lat="42.870641" lon="-5.373240">
			<ele>1557.000000</ele>
		<time>2015-11-09T11:45:36Z</time>
		</trkpt>

		<trkpt lat="42.870604" lon="-5.373532">
			<ele>1560.000000</ele>
		<time>2015-11-09T11:45:39Z</time>
		</trkpt>

		<trkpt lat="42.870562" lon="-5.373821">
			<ele>1563.000000</ele>
		<time>2015-11-09T11:45:42Z</time>
		</trkpt>

		<trkpt lat="42.870375" lon="-5.373851">
			<ele>1560.000000</ele>
		<time>2015-11-09T11:45:45Z</time>
		</trkpt>

		<trkpt lat="42.870276" lon="-5.373659">
			<ele>1563.000000</ele>
		<time>2015-11-09T11:45:48Z</time>
		</trkpt>

		<trkpt lat="42.870310" lon="-5.373343">
			<ele>1559.000000</ele>
		<time>2015-11-09T11:45:51Z</time>
		</trkpt>

		<trkpt lat="42.870518" lon="-5.373111">
			<ele>1561.000000</ele>
		<time>2015-11-09T11:45:54Z</time>
		</trkpt>

		<trkpt lat="42.870773" lon="-5.373005">
			<ele>1560.000000</ele>
		<time>2015-11-09T11:45:57Z</time>
		</trkpt>

		<trkpt lat="42.871058" lon="-5.372934">
			<ele>1558.000000</ele>
		<time>2015-11-09T11:46:00Z</time>
		</trkpt>

		<trkpt lat="42.871302" lon="-5.372833">
			<ele>1557.000000</ele>
		<time>2015-11-09T11:46:03Z</time>
		</trkpt>

		<trkpt lat="42.871472" lon="-5.372597">
			<ele>1553.000000</ele>
		<time>2015-11-09T11:46:06Z</time>
		</trkpt>

		<trkpt lat="42.871471" lon="-5.372343">
			<ele>1551.000000</ele>
		<time>2015-11-09T11:46:09Z</time>
		</trkpt>

		<trkpt lat="42.871423" lon="-5.372099">
			<ele>1549.000000</ele>
		<time>2015-11-09T11:46:12Z</time>
		</trkpt>

		<trkpt lat="42.871347" lon="-5.371874">
			<ele>1543.000000</ele>
		<time>2015-11-09T11:46:15Z</time>
		</trkpt>

		<trkpt lat="42.871268" lon="-5.371585">
			<ele>1541.000000</ele>
		<time>2015-11-09T11:46:18Z</time>
		</trkpt>

		<trkpt lat="42.871181" lon="-5.371324">
			<ele>1541.000000</ele>
		<time>2015-11-09T11:46:21Z</time>
		</trkpt>

		<trkpt lat="42.871028" lon="-5.371171">
			<ele>1540.000000</ele>
		<time>2015-11-09T11:46:24Z</time>
		</trkpt>

		<trkpt lat="42.870856" lon="-5.371064">
			<ele>1534.000000</ele>
		<time>2015-11-09T11:46:27Z</time>
		</trkpt>

		<trkpt lat="42.870695" lon="-5.370918">
			<ele>1533.000000</ele>
		<time>2015-11-09T11:46:30Z</time>
		</trkpt>

		<trkpt lat="42.870523" lon="-5.370812">
			<ele>1529.000000</ele>
		<time>2015-11-09T11:46:33Z</time>
		</trkpt>

		<trkpt lat="42.870325" lon="-5.370710">
			<ele>1526.000000</ele>
		<time>2015-11-09T11:46:36Z</time>
		</trkpt>

		<trkpt lat="42.870163" lon="-5.370553">
			<ele>1524.000000</ele>
		<time>2015-11-09T11:46:39Z</time>
		</trkpt>

		<trkpt lat="42.869970" lon="-5.370459">
			<ele>1519.000000</ele>
		<time>2015-11-09T11:46:42Z</time>
		</trkpt>

		<trkpt lat="42.869797" lon="-5.370484">
			<ele>1513.000000</ele>
		<time>2015-11-09T11:46:45Z</time>
		</trkpt>

		<trkpt lat="42.869605" lon="-5.370485">
			<ele>1506.000000</ele>
		<time>2015-11-09T11:46:48Z</time>
		</trkpt>

		<trkpt lat="42.869436" lon="-5.370284">
			<ele>1499.000000</ele>
		<time>2015-11-09T11:46:51Z</time>
		</trkpt>

		<trkpt lat="42.869393" lon="-5.369956">
			<ele>1496.000000</ele>
		<time>2015-11-09T11:46:54Z</time>
		</trkpt>

		<trkpt lat="42.869427" lon="-5.369573">
			<ele>1489.000000</ele>
		<time>2015-11-09T11:46:57Z</time>
		</trkpt>

		<trkpt lat="42.869593" lon="-5.369218">
			<ele>1484.000000</ele>
		<time>2015-11-09T11:47:00Z</time>
		</trkpt>

		<trkpt lat="42.869740" lon="-5.368874">
			<ele>1482.000000</ele>
		<time>2015-11-09T11:47:03Z</time>
		</trkpt>

		<trkpt lat="42.869883" lon="-5.368570">
			<ele>1481.000000</ele>
		<time>2015-11-09T11:47:06Z</time>
		</trkpt>

		<trkpt lat="42.870030" lon="-5.368336">
			<ele>1479.000000</ele>
		<time>2015-11-09T11:47:09Z</time>
		</trkpt>

		<trkpt lat="42.870185" lon="-5.368056">
			<ele>1476.000000</ele>
		<time>2015-11-09T11:47:12Z</time>
		</trkpt>

		<trkpt lat="42.870286" lon="-5.367768">
			<ele>1475.000000</ele>
		<time>2015-11-09T11:47:15Z</time>
		</trkpt>

		<trkpt lat="42.870318" lon="-5.367484">
			<ele>1471.000000</ele>
		<time>2015-11-09T11:47:18Z</time>
		</trkpt>

		<trkpt lat="42.870318" lon="-5.367177">
			<ele>1469.000000</ele>
		<time>2015-11-09T11:47:21Z</time>
		</trkpt>

		<trkpt lat="42.870254" lon="-5.366899">
			<ele>1465.000000</ele>
		<time>2015-11-09T11:47:24Z</time>
		</trkpt>

		<trkpt lat="42.870165" lon="-5.366640">
			<ele>1461.000000</ele>
		<time>2015-11-09T11:47:27Z</time>
		</trkpt>

		<trkpt lat="42.870081" lon="-5.366377">
			<ele>1461.000000</ele>
		<time>2015-11-09T11:47:30Z</time>
		</trkpt>

		<trkpt lat="42.870017" lon="-5.366170">
			<ele>1459.000000</ele>
		<time>2015-11-09T11:47:33Z</time>
		</trkpt>

		<trkpt lat="42.870017" lon="-5.365920">
			<ele>1455.000000</ele>
		<time>2015-11-09T11:47:36Z</time>
		</trkpt>

		<trkpt lat="42.870121" lon="-5.365640">
			<ele>1450.000000</ele>
		<time>2015-11-09T11:47:39Z</time>
		</trkpt>

		<trkpt lat="42.870168" lon="-5.365407">
			<ele>1448.000000</ele>
		<time>2015-11-09T11:47:42Z</time>
		</trkpt>

		<trkpt lat="42.870105" lon="-5.365186">
			<ele>1446.000000</ele>
		<time>2015-11-09T11:47:45Z</time>
		</trkpt>

		<trkpt lat="42.870012" lon="-5.364970">
			<ele>1444.000000</ele>
		<time>2015-11-09T11:47:48Z</time>
		</trkpt>

		<trkpt lat="42.869910" lon="-5.364755">
			<ele>1444.000000</ele>
		<time>2015-11-09T11:47:51Z</time>
		</trkpt>

		<trkpt lat="42.869791" lon="-5.364536">
			<ele>1442.000000</ele>
		<time>2015-11-09T11:47:54Z</time>
		</trkpt>

		<trkpt lat="42.869719" lon="-5.364297">
			<ele>1442.000000</ele>
		<time>2015-11-09T11:47:57Z</time>
		</trkpt>

		<trkpt lat="42.869665" lon="-5.364070">
			<ele>1442.000000</ele>
		<time>2015-11-09T11:48:00Z</time>
		</trkpt>

		<trkpt lat="42.869703" lon="-5.363854">
			<ele>1440.000000</ele>
		<time>2015-11-09T11:48:03Z</time>
		</trkpt>

		<trkpt lat="42.869863" lon="-5.363624">
			<ele>1439.000000</ele>
		<time>2015-11-09T11:48:06Z</time>
		</trkpt>

		<trkpt lat="42.869978" lon="-5.363393">
			<ele>1440.000000</ele>
		<time>2015-11-09T11:48:09Z</time>
		</trkpt>

		<trkpt lat="42.870101" lon="-5.363186">
			<ele>1440.000000</ele>
		<time>2015-11-09T11:48:12Z</time>
		</trkpt>

		<trkpt lat="42.870174" lon="-5.362905">
			<ele>1437.000000</ele>
		<time>2015-11-09T11:48:15Z</time>
		</trkpt>

		<trkpt lat="42.870121" lon="-5.362646">
			<ele>1445.000000</ele>
		<time>2015-11-09T11:48:18Z</time>
		</trkpt>

		<trkpt lat="42.870012" lon="-5.362501">
			<ele>1446.000000</ele>
		<time>2015-11-09T11:48:21Z</time>
		</trkpt>

		<trkpt lat="42.869880" lon="-5.362321">
			<ele>1451.000000</ele>
		<time>2015-11-09T11:48:24Z</time>
		</trkpt>

		<trkpt lat="42.869854" lon="-5.362086">
			<ele>1449.000000</ele>
		<time>2015-11-09T11:48:27Z</time>
		</trkpt>

		<trkpt lat="42.870009" lon="-5.361837">
			<ele>1446.000000</ele>
		<time>2015-11-09T11:48:30Z</time>
		</trkpt>

		<trkpt lat="42.870257" lon="-5.361718">
			<ele>1441.000000</ele>
		<time>2015-11-09T11:48:33Z</time>
		</trkpt>

		<trkpt lat="42.870441" lon="-5.361468">
			<ele>1440.000000</ele>
		<time>2015-11-09T11:48:36Z</time>
		</trkpt>

		<trkpt lat="42.870478" lon="-5.361162">
			<ele>1435.000000</ele>
		<time>2015-11-09T11:48:39Z</time>
		</trkpt>

		<trkpt lat="42.868365" lon="-5.359970">
			<ele>1384.000000</ele>
		<time>2015-11-09T11:49:12Z</time>
		</trkpt>

		<trkpt lat="42.868155" lon="-5.359947">
			<ele>1396.000000</ele>
		<time>2015-11-09T11:49:15Z</time>
		</trkpt>

		<trkpt lat="42.868014" lon="-5.359793">
			<ele>1387.000000</ele>
		<time>2015-11-09T11:49:18Z</time>
		</trkpt>

		<trkpt lat="42.867898" lon="-5.359706">
			<ele>1376.000000</ele>
		<time>2015-11-09T11:49:21Z</time>
		</trkpt>

		<trkpt lat="42.867703" lon="-5.359662">
			<ele>1371.000000</ele>
		<time>2015-11-09T11:49:24Z</time>
		</trkpt>

		<trkpt lat="42.867526" lon="-5.359603">
			<ele>1371.000000</ele>
		<time>2015-11-09T11:49:27Z</time>
		</trkpt>

		<trkpt lat="42.867346" lon="-5.359577">
			<ele>1369.000000</ele>
		<time>2015-11-09T11:49:30Z</time>
		</trkpt>

		<trkpt lat="42.867163" lon="-5.359496">
			<ele>1363.000000</ele>
		<time>2015-11-09T11:49:33Z</time>
		</trkpt>

		<trkpt lat="42.866964" lon="-5.359404">
			<ele>1361.000000</ele>
		<time>2015-11-09T11:49:36Z</time>
		</trkpt>

		<trkpt lat="42.866793" lon="-5.359310">
			<ele>1359.000000</ele>
		<time>2015-11-09T11:49:39Z</time>
		</trkpt>

		<trkpt lat="42.866622" lon="-5.359190">
			<ele>1358.000000</ele>
		<time>2015-11-09T11:49:42Z</time>
		</trkpt>

		<trkpt lat="42.866422" lon="-5.359172">
			<ele>1355.000000</ele>
		<time>2015-11-09T11:49:45Z</time>
		</trkpt>

		<trkpt lat="42.866224" lon="-5.359253">
			<ele>1352.000000</ele>
		<time>2015-11-09T11:49:48Z</time>
		</trkpt>

		<trkpt lat="42.866029" lon="-5.359384">
			<ele>1347.000000</ele>
		<time>2015-11-09T11:49:51Z</time>
		</trkpt>

		<trkpt lat="42.865824" lon="-5.359453">
			<ele>1343.000000</ele>
		<time>2015-11-09T11:49:54Z</time>
		</trkpt>

		<trkpt lat="42.865613" lon="-5.359512">
			<ele>1337.000000</ele>
		<time>2015-11-09T11:49:57Z</time>
		</trkpt>

		<trkpt lat="42.865396" lon="-5.359567">
			<ele>1333.000000</ele>
		<time>2015-11-09T11:50:00Z</time>
		</trkpt>

		<trkpt lat="42.865188" lon="-5.359603">
			<ele>1328.000000</ele>
		<time>2015-11-09T11:50:03Z</time>
		</trkpt>

		<trkpt lat="42.864968" lon="-5.359659">
			<ele>1324.000000</ele>
		<time>2015-11-09T11:50:06Z</time>
		</trkpt>

		<trkpt lat="42.864739" lon="-5.359634">
			<ele>1319.000000</ele>
		<time>2015-11-09T11:50:09Z</time>
		</trkpt>

		<trkpt lat="42.864555" lon="-5.359564">
			<ele>1313.000000</ele>
		<time>2015-11-09T11:50:12Z</time>
		</trkpt>

		<trkpt lat="42.864357" lon="-5.359447">
			<ele>1309.000000</ele>
		<time>2015-11-09T11:50:15Z</time>
		</trkpt>

		<trkpt lat="42.864156" lon="-5.359298">
			<ele>1304.000000</ele>
		<time>2015-11-09T11:50:18Z</time>
		</trkpt>

		<trkpt lat="42.863942" lon="-5.359155">
			<ele>1295.000000</ele>
		<time>2015-11-09T11:50:21Z</time>
		</trkpt>

		<trkpt lat="42.863710" lon="-5.359033">
			<ele>1288.000000</ele>
		<time>2015-11-09T11:50:24Z</time>
		</trkpt>

		<trkpt lat="42.863500" lon="-5.358872">
			<ele>1282.000000</ele>
		<time>2015-11-09T11:50:27Z</time>
		</trkpt>

		<trkpt lat="42.863297" lon="-5.358723">
			<ele>1282.000000</ele>
		<time>2015-11-09T11:50:30Z</time>
		</trkpt>

		<trkpt lat="42.863097" lon="-5.358607">
			<ele>1277.000000</ele>
		<time>2015-11-09T11:50:33Z</time>
		</trkpt>

		<trkpt lat="42.862873" lon="-5.358491">
			<ele>1273.000000</ele>
		<time>2015-11-09T11:50:36Z</time>
		</trkpt>

		<trkpt lat="42.862687" lon="-5.358366">
			<ele>1272.000000</ele>
		<time>2015-11-09T11:50:39Z</time>
		</trkpt>

		<trkpt lat="42.862471" lon="-5.358295">
			<ele>1270.000000</ele>
		<time>2015-11-09T11:50:42Z</time>
		</trkpt>

		<trkpt lat="42.862300" lon="-5.358260">
			<ele>1274.000000</ele>
		<time>2015-11-09T11:50:45Z</time>
		</trkpt>

		<trkpt lat="42.862139" lon="-5.358191">
			<ele>1271.000000</ele>
		<time>2015-11-09T11:50:48Z</time>
		</trkpt>

		<trkpt lat="42.862050" lon="-5.357928">
			<ele>1270.000000</ele>
		<time>2015-11-09T11:50:51Z</time>
		</trkpt>

		<trkpt lat="42.862199" lon="-5.357702">
			<ele>1267.000000</ele>
		<time>2015-11-09T11:50:54Z</time>
		</trkpt>

		<trkpt lat="42.862402" lon="-5.357589">
			<ele>1264.000000</ele>
		<time>2015-11-09T11:50:57Z</time>
		</trkpt>

		<trkpt lat="42.862539" lon="-5.357336">
			<ele>1260.000000</ele>
		<time>2015-11-09T11:51:00Z</time>
		</trkpt>

		<trkpt lat="42.862517" lon="-5.356987">
			<ele>1256.000000</ele>
		<time>2015-11-09T11:51:03Z</time>
		</trkpt>

		<trkpt lat="42.862371" lon="-5.356764">
			<ele>1247.000000</ele>
		<time>2015-11-09T11:51:06Z</time>
		</trkpt>

		<trkpt lat="42.862136" lon="-5.356721">
			<ele>1243.000000</ele>
		<time>2015-11-09T11:51:09Z</time>
		</trkpt>

		<trkpt lat="42.861932" lon="-5.356865">
			<ele>1239.000000</ele>
		<time>2015-11-09T11:51:12Z</time>
		</trkpt>

		<trkpt lat="42.861760" lon="-5.357124">
			<ele>1236.000000</ele>
		<time>2015-11-09T11:51:15Z</time>
		</trkpt>

		<trkpt lat="42.861545" lon="-5.357283">
			<ele>1231.000000</ele>
		<time>2015-11-09T11:51:18Z</time>
		</trkpt>

		<trkpt lat="42.861395" lon="-5.357493">
			<ele>1227.000000</ele>
		<time>2015-11-09T11:51:21Z</time>
		</trkpt>

		<trkpt lat="42.861225" lon="-5.357658">
			<ele>1221.000000</ele>
		<time>2015-11-09T11:51:24Z</time>
		</trkpt>

		<trkpt lat="42.861046" lon="-5.357878">
			<ele>1215.000000</ele>
		<time>2015-11-09T11:51:27Z</time>
		</trkpt>

		<trkpt lat="42.860866" lon="-5.358075">
			<ele>1209.000000</ele>
		<time>2015-11-09T11:51:30Z</time>
		</trkpt>

		<trkpt lat="42.860719" lon="-5.358349">
			<ele>1204.000000</ele>
		<time>2015-11-09T11:51:33Z</time>
		</trkpt>

		<trkpt lat="42.860707" lon="-5.358690">
			<ele>1201.000000</ele>
		<time>2015-11-09T11:51:36Z</time>
		</trkpt>

		<trkpt lat="42.860636" lon="-5.359019">
			<ele>1199.000000</ele>
		<time>2015-11-09T11:51:39Z</time>
		</trkpt>

		<trkpt lat="42.860508" lon="-5.359279">
			<ele>1196.000000</ele>
		<time>2015-11-09T11:51:42Z</time>
		</trkpt>

		<trkpt lat="42.860378" lon="-5.359618">
			<ele>1188.000000</ele>
		<time>2015-11-09T11:51:45Z</time>
		</trkpt>

		<trkpt lat="42.860200" lon="-5.359881">
			<ele>1182.000000</ele>
		<time>2015-11-09T11:51:48Z</time>
		</trkpt>

		<trkpt lat="42.860024" lon="-5.360046">
			<ele>1175.000000</ele>
		<time>2015-11-09T11:51:51Z</time>
		</trkpt>

		<trkpt lat="42.859843" lon="-5.360206">
			<ele>1167.000000</ele>
		<time>2015-11-09T11:51:54Z</time>
		</trkpt>

		<trkpt lat="42.859620" lon="-5.360258">
			<ele>1166.000000</ele>
		<time>2015-11-09T11:51:57Z</time>
		</trkpt>

		<trkpt lat="42.859511" lon="-5.360003">
			<ele>1162.000000</ele>
		<time>2015-11-09T11:52:00Z</time>
		</trkpt>

		<trkpt lat="42.859717" lon="-5.359625">
			<ele>1158.000000</ele>
		<time>2015-11-09T11:52:03Z</time>
		</trkpt>

		<trkpt lat="42.859876" lon="-5.359411">
			<ele>1156.000000</ele>
		<time>2015-11-09T11:52:06Z</time>
		</trkpt>

		<trkpt lat="42.859763" lon="-5.359191">
			<ele>1154.000000</ele>
		<time>2015-11-09T11:52:09Z</time>
		</trkpt>

		<trkpt lat="42.859546" lon="-5.359209">
			<ele>1148.000000</ele>
		<time>2015-11-09T11:52:12Z</time>
		</trkpt>

		<trkpt lat="42.859363" lon="-5.359359">
			<ele>1140.000000</ele>
		<time>2015-11-09T11:52:15Z</time>
		</trkpt>

		<trkpt lat="42.859183" lon="-5.359342">
			<ele>1133.000000</ele>
		<time>2015-11-09T11:52:18Z</time>
		</trkpt>

		<trkpt lat="42.859267" lon="-5.359051">
			<ele>1132.000000</ele>
		<time>2015-11-09T11:52:21Z</time>
		</trkpt>

		<trkpt lat="42.859413" lon="-5.358832">
			<ele>1132.000000</ele>
		<time>2015-11-09T11:52:24Z</time>
		</trkpt>

		<trkpt lat="42.859402" lon="-5.358516">
			<ele>1130.000000</ele>
		<time>2015-11-09T11:52:27Z</time>
		</trkpt>

		<trkpt lat="42.859384" lon="-5.358245">
			<ele>1124.000000</ele>
		<time>2015-11-09T11:52:30Z</time>
		</trkpt>

		<trkpt lat="42.859207" lon="-5.358101">
			<ele>1119.000000</ele>
		<time>2015-11-09T11:52:33Z</time>
		</trkpt>

		<trkpt lat="42.858953" lon="-5.358213">
			<ele>1111.000000</ele>
		<time>2015-11-09T11:52:36Z</time>
		</trkpt>

		<trkpt lat="42.858779" lon="-5.358099">
			<ele>1107.000000</ele>
		<time>2015-11-09T11:52:39Z</time>
		</trkpt>

		<trkpt lat="42.858728" lon="-5.357856">
			<ele>1106.000000</ele>
		<time>2015-11-09T11:52:42Z</time>
		</trkpt>

		<trkpt lat="42.858577" lon="-5.357747">
			<ele>1101.000000</ele>
		<time>2015-11-09T11:52:45Z</time>
		</trkpt>

		<trkpt lat="42.858374" lon="-5.357671">
			<ele>1101.000000</ele>
		<time>2015-11-09T11:52:48Z</time>
		</trkpt>

		<trkpt lat="42.858247" lon="-5.357607">
			<ele>1100.000000</ele>
		<time>2015-11-09T11:52:51Z</time>
		</trkpt>

		<trkpt lat="42.858194" lon="-5.357616">
			<ele>1100.000000</ele>
		<time>2015-11-09T11:53:41Z</time>
		</trkpt>

		<trkpt lat="42.858184" lon="-5.357655">
			<ele>1098.000000</ele>
		<time>2015-11-09T11:54:24Z</time>
		</trkpt>

		<trkpt lat="42.858165" lon="-5.357681">
			<ele>1100.000000</ele>
		<time>2015-11-09T11:54:59Z</time>
		</trkpt>

		<trkpt lat="42.858166" lon="-5.357719">
			<ele>1100.000000</ele>
		<time>2015-11-09T11:55:27Z</time>
		</trkpt>

		<trkpt lat="42.858160" lon="-5.357681">
			<ele>1104.000000</ele>
		<time>2015-11-09T11:56:05Z</time>
		</trkpt>

		<trkpt lat="42.858139" lon="-5.357653">
			<ele>1103.000000</ele>
		<time>2015-11-09T11:56:09Z</time>
		</trkpt>

		<trkpt lat="42.858141" lon="-5.357693">
			<ele>1105.000000</ele>
		<time>2015-11-09T11:56:12Z</time>
		</trkpt>

		<trkpt lat="42.858158" lon="-5.357648">
			<ele>1105.000000</ele>
		<time>2015-11-09T11:56:25Z</time>
		</trkpt>

		<trkpt lat="42.858182" lon="-5.357671">
			<ele>1105.000000</ele>
		<time>2015-11-09T11:56:30Z</time>
		</trkpt>

		<trkpt lat="42.858193" lon="-5.357632">
			<ele>1102.000000</ele>
		<time>2015-11-09T11:56:42Z</time>
		</trkpt>

		<trkpt lat="42.858216" lon="-5.357605">
			<ele>1102.000000</ele>
		<time>2015-11-09T11:57:12Z</time>
		</trkpt>

		<trkpt lat="42.858244" lon="-5.357600">
			<ele>1101.000000</ele>
		<time>2015-11-09T11:57:16Z</time>
		</trkpt>

		<trkpt lat="42.858217" lon="-5.357585">
			<ele>1100.000000</ele>
		<time>2015-11-09T11:57:29Z</time>
		</trkpt>

		<trkpt lat="42.858202" lon="-5.357616">
			<ele>1103.000000</ele>
		<time>2015-11-09T11:58:00Z</time>
		</trkpt>

		<trkpt lat="42.858183" lon="-5.357646">
			<ele>1101.000000</ele>
		<time>2015-11-09T11:59:15Z</time>
		</trkpt>

		<trkpt lat="42.858169" lon="-5.357688">
			<ele>1102.000000</ele>
		<time>2015-11-09T11:59:18Z</time>
		</trkpt>

		<trkpt lat="42.858146" lon="-5.357724">
			<ele>1102.000000</ele>
		<time>2015-11-09T11:59:21Z</time>
		</trkpt>

		<trkpt lat="42.858116" lon="-5.357757">
			<ele>1103.000000</ele>
		<time>2015-11-09T11:59:24Z</time>
		</trkpt>

		<trkpt lat="42.858086" lon="-5.357786">
			<ele>1104.000000</ele>
		<time>2015-11-09T11:59:27Z</time>
		</trkpt>

		<trkpt lat="42.858065" lon="-5.357821">
			<ele>1104.000000</ele>
		<time>2015-11-09T11:59:51Z</time>
		</trkpt>

		<trkpt lat="42.858051" lon="-5.357862">
			<ele>1105.000000</ele>
		<time>2015-11-09T12:00:05Z</time>
		</trkpt>

		<trkpt lat="42.858037" lon="-5.357899">
			<ele>1103.000000</ele>
		<time>2015-11-09T12:00:08Z</time>
		</trkpt>

		<trkpt lat="42.858006" lon="-5.357915">
			<ele>1103.000000</ele>
		<time>2015-11-09T12:00:32Z</time>
		</trkpt>

	</trkseg>
</trk>
</gpx>

